createdAt,value
2024-05-09T00:01:18.126Z,8.70
2024-05-09T00:04:23.483Z,8.72
2024-05-09T00:07:28.644Z,8.56
2024-05-09T00:10:37.476Z,8.36
2024-05-09T00:13:44.216Z,8.37
2024-05-09T00:16:51.282Z,8.32
2024-05-09T00:19:56.569Z,8.41
2024-05-09T00:23:01.948Z,8.42
2024-05-09T00:26:07.588Z,8.40
2024-05-09T00:29:12.745Z,8.40
2024-05-09T00:32:18.232Z,8.06
2024-05-09T00:35:24.691Z,8.15
2024-05-09T00:38:30.277Z,8.21
2024-05-09T00:41:35.636Z,8.24
2024-05-09T00:44:40.903Z,8.28
2024-05-09T00:47:48.953Z,8.23
2024-05-09T00:50:55.944Z,8.21
2024-05-09T00:54:01.237Z,8.19
2024-05-09T00:57:08.073Z,8.17
2024-05-09T01:00:27.391Z,8.14
2024-05-09T01:03:40.867Z,8.14
2024-05-09T01:06:46.582Z,8.11
2024-05-09T01:09:51.829Z,7.98
2024-05-09T01:12:56.992Z,7.96
2024-05-09T01:16:02.615Z,8.02
2024-05-09T01:19:17.525Z,8.01
2024-05-09T01:22:22.970Z,8.00
2024-05-09T01:25:28.106Z,8.05
2024-05-09T01:28:33.383Z,7.92
2024-05-09T01:31:38.579Z,7.80
2024-05-09T01:34:43.742Z,7.72
2024-05-09T01:37:48.987Z,7.74
2024-05-09T01:40:54.256Z,7.71
2024-05-09T01:43:59.556Z,7.73
2024-05-09T01:47:05.535Z,7.75
2024-05-09T01:50:11.312Z,7.70
2024-05-09T01:53:17.845Z,7.63
2024-05-09T01:56:23.334Z,7.71
2024-05-09T01:59:28.801Z,7.75
2024-05-09T02:02:34.143Z,7.63
2024-05-09T02:05:39.620Z,7.58
2024-05-09T02:08:44.945Z,7.39
2024-05-09T02:11:51.670Z,7.42
2024-05-09T02:14:56.963Z,7.38
2024-05-09T02:18:02.343Z,7.33
2024-05-09T02:21:08.145Z,7.35
2024-05-09T02:24:13.404Z,7.41
2024-05-09T02:27:18.611Z,7.43
2024-05-09T02:30:31.005Z,7.43
2024-05-09T02:33:44.124Z,7.45
2024-05-09T02:36:49.594Z,7.41
2024-05-09T02:39:52.094Z,7.35
2024-05-09T02:42:57.306Z,7.32
2024-05-09T02:45:59.828Z,7.35
2024-05-09T02:49:05.162Z,7.35
2024-05-09T02:52:07.724Z,7.35
2024-05-09T02:55:12.921Z,7.29
2024-05-09T02:58:15.543Z,7.31
2024-05-09T03:01:21.149Z,7.32
2024-05-09T03:04:23.741Z,7.31
2024-05-09T03:07:29.074Z,7.13
2024-05-09T03:10:36.092Z,7.07
2024-05-09T03:13:44.977Z,7.12
2024-05-09T03:16:47.591Z,7.18
2024-05-09T03:19:53.261Z,7.19
2024-05-09T03:22:57.006Z,7.19
2024-05-09T03:26:02.458Z,7.22
2024-05-09T03:29:07.734Z,7.12
2024-05-09T03:32:14.668Z,7.01
2024-05-09T03:35:18.042Z,7.02
2024-05-09T03:38:23.317Z,7.06
2024-05-09T03:41:28.596Z,7.12
2024-05-09T03:44:34.104Z,7.08
2024-05-09T03:47:39.450Z,7.12
2024-05-09T03:50:42.604Z,7.06
2024-05-09T03:53:47.895Z,7.07
2024-05-09T03:56:54.437Z,7.09
2024-05-09T03:59:56.924Z,7.14
2024-05-09T04:03:03.222Z,7.30
2024-05-09T04:06:09.304Z,7.27
2024-05-09T04:09:11.878Z,7.30
2024-05-09T04:12:17.081Z,7.29
2024-05-09T04:15:19.784Z,7.29
2024-05-09T04:18:25.062Z,7.34
2024-05-09T04:21:30.356Z,7.48
2024-05-09T04:24:32.950Z,7.64
2024-05-09T04:27:38.131Z,7.63
2024-05-09T04:30:41.803Z,7.65
2024-05-09T04:33:47.951Z,7.82
2024-05-09T04:36:50.534Z,7.58
2024-05-09T04:39:55.806Z,7.30
2024-05-09T04:43:01.555Z,7.34
2024-05-09T04:46:06.896Z,7.37
2024-05-09T04:49:12.350Z,7.49
2024-05-09T04:52:17.507Z,7.48
2024-05-09T04:55:20.044Z,7.39
2024-05-09T04:58:25.441Z,7.49
2024-05-09T05:01:28.065Z,7.55
2024-05-09T05:04:33.575Z,7.69
2024-05-09T05:07:36.192Z,7.77
2024-05-09T05:10:41.451Z,8.11
2024-05-09T05:13:44.125Z,8.21
2024-05-09T05:16:49.516Z,8.50
2024-05-09T05:19:52.265Z,8.66
2024-05-09T05:22:57.585Z,8.67
2024-05-09T05:26:02.959Z,8.41
2024-05-09T05:29:05.669Z,8.08
2024-05-09T05:32:11.642Z,7.94
2024-05-09T05:35:14.567Z,8.07
2024-05-09T05:38:23.747Z,8.53
2024-05-09T05:41:31.516Z,8.10
2024-05-09T05:44:34.160Z,8.39
2024-05-09T05:47:40.168Z,8.20
2024-05-09T05:50:48.529Z,8.42
2024-05-09T05:53:51.308Z,8.72
2024-05-09T05:56:56.615Z,8.47
2024-05-09T06:00:02.182Z,8.27
2024-05-09T06:03:09.593Z,-146.62
2024-05-09T06:06:17.127Z,-146.62
2024-05-09T06:09:19.859Z,-146.62
2024-05-09T06:12:25.365Z,-146.62
2024-05-09T06:15:30.669Z,-146.62
2024-05-09T06:18:33.651Z,-146.62
2024-05-09T06:21:39.071Z,-146.62
2024-05-09T06:24:44.235Z,-146.62
2024-05-09T06:27:49.610Z,-146.62
2024-05-09T06:30:52.120Z,-146.62
2024-05-09T06:33:57.550Z,-146.62
2024-05-09T06:37:00.195Z,-146.62
2024-05-09T06:40:07.470Z,-146.62
2024-05-09T06:43:19.188Z,-146.62
2024-05-09T06:46:26.018Z,-146.62
2024-05-09T06:49:32.918Z,-146.62
2024-05-09T06:52:35.513Z,-146.62
2024-05-09T06:55:40.846Z,-146.62
2024-05-09T06:58:43.437Z,-146.62
2024-05-09T07:01:48.650Z,-146.62
2024-05-09T07:04:51.377Z,-146.62
2024-05-09T07:07:56.677Z,-146.62
2024-05-09T07:10:59.349Z,-146.62
2024-05-09T07:14:04.604Z,-146.62
2024-05-09T07:17:07.267Z,-146.62
2024-05-09T07:20:23.006Z,-146.62
2024-05-09T07:23:30.415Z,-146.62
2024-05-09T07:26:35.676Z,-146.62
2024-05-09T07:29:38.848Z,-146.62
2024-05-09T07:32:45.249Z,-146.62
2024-05-09T07:35:48.285Z,-146.62
2024-05-09T07:38:53.535Z,-146.62
2024-05-09T07:41:56.474Z,-146.62
2024-05-09T07:45:21.033Z,-146.62
2024-05-09T07:50:00.435Z,-146.62
2024-05-09T07:53:21.127Z,-146.62
2024-05-09T07:55:16.174Z,-146.62
2024-05-09T07:58:22.547Z,-146.62
2024-05-09T08:01:28.394Z,-146.62
2024-05-09T08:04:31.142Z,-146.62
2024-05-09T08:07:39.379Z,-146.62
2024-05-09T08:10:42.222Z,-146.62
2024-05-09T08:13:47.549Z,-146.62
2024-05-09T08:16:50.102Z,-146.62
2024-05-09T08:19:56.241Z,-146.62
2024-05-09T08:22:58.910Z,-146.62
2024-05-09T08:26:04.175Z,-146.62
2024-05-09T08:29:09.721Z,-146.62
2024-05-09T08:32:13.736Z,-146.62
2024-05-09T08:35:19.034Z,-146.62
2024-05-09T08:38:21.584Z,-146.62
2024-05-09T08:41:28.128Z,-146.62
2024-05-09T08:44:31.019Z,-146.62
2024-05-09T08:47:36.265Z,-146.62
2024-05-09T08:50:45.144Z,-146.62
2024-05-09T08:53:51.095Z,-146.62
2024-05-09T08:56:54.008Z,-146.62
2024-05-09T09:00:09.907Z,-146.62
2024-05-09T09:03:25.213Z,-146.62
2024-05-09T09:06:29.900Z,-146.62
2024-05-09T09:09:40.963Z,-146.62
2024-05-09T09:12:43.645Z,-146.62
2024-05-09T09:15:57.830Z,-146.62
2024-05-09T09:19:03.356Z,-146.62
2024-05-09T09:22:06.196Z,-146.62
2024-05-09T09:25:11.495Z,-146.62
2024-05-09T09:28:17.282Z,-146.62
2024-05-09T09:31:20.265Z,-146.62
2024-05-09T09:34:31.682Z,-146.62
2024-05-09T09:37:40.760Z,-146.62
2024-05-09T09:40:49.740Z,-146.62
2024-05-09T09:43:58.400Z,-146.62
2024-05-09T09:47:02.956Z,-146.62
2024-05-09T09:50:14.435Z,-146.62
2024-05-09T09:53:20.428Z,-146.62
2024-05-09T09:56:30.400Z,-146.62
2024-05-09T09:59:35.354Z,-146.62
2024-05-09T10:02:40.581Z,-146.62
2024-05-09T10:05:46.434Z,-146.62
2024-05-09T10:08:53.813Z,-146.62
2024-05-09T10:12:00.214Z,-146.62
2024-05-09T10:15:12.273Z,-146.62
2024-05-09T10:18:22.818Z,-146.62
2024-05-09T10:21:27.250Z,-146.62
2024-05-09T10:24:55.092Z,-146.62
2024-05-09T10:27:57.889Z,-146.62
2024-05-09T10:31:18.859Z,-146.62
2024-05-09T10:34:26.617Z,-146.62
2024-05-09T10:37:29.588Z,-146.62
2024-05-09T10:40:35.051Z,-146.62
2024-05-09T10:43:42.351Z,-146.62
2024-05-09T10:46:51.112Z,-146.62
2024-05-09T10:49:55.834Z,-146.62
2024-05-09T10:53:01.053Z,-146.62
2024-05-09T10:56:03.832Z,-146.62
2024-05-09T10:59:09.234Z,-146.62
2024-05-09T11:02:12.842Z,-146.62
2024-05-09T11:05:19.100Z,-146.62
2024-05-09T11:08:23.951Z,-146.62
2024-05-09T11:11:30.291Z,-146.62
2024-05-09T11:14:33.166Z,-146.62
2024-05-09T11:17:41.619Z,-146.62
2024-05-09T11:20:44.534Z,-146.62
2024-05-09T11:23:50.253Z,-146.62
2024-05-09T11:26:55.497Z,-146.62
2024-05-09T11:29:58.753Z,-146.62
2024-05-09T11:33:04.337Z,-146.62
2024-05-09T11:36:08.308Z,-146.62
2024-05-09T11:39:14.889Z,-146.62
2024-05-09T11:42:17.694Z,-146.62
2024-05-09T11:45:22.958Z,-146.62
2024-05-09T11:48:26.648Z,-146.62
2024-05-09T11:51:32.142Z,-146.62
2024-05-09T11:54:37.464Z,-146.62
2024-05-09T11:57:40.129Z,-146.62
2024-05-09T12:00:46.268Z,-146.62
2024-05-09T12:03:54.302Z,-146.62
2024-05-09T12:06:59.802Z,-146.62
2024-05-09T12:10:03.478Z,-146.62
2024-05-09T12:13:10.013Z,-146.62
2024-05-09T12:16:22.245Z,-146.62
2024-05-09T12:19:27.867Z,-146.62
2024-05-09T12:22:30.540Z,-146.62
2024-05-09T12:25:35.712Z,-146.62
2024-05-09T12:28:38.453Z,-146.62
2024-05-09T12:31:43.653Z,-146.62
2024-05-09T12:34:46.340Z,-146.62
2024-05-09T12:37:51.540Z,-146.62
2024-05-09T12:40:54.484Z,-146.62
2024-05-09T12:43:59.795Z,-146.62
2024-05-09T12:47:02.532Z,-146.62
2024-05-09T12:50:13.451Z,-146.62
2024-05-09T12:53:21.176Z,-146.62
2024-05-09T12:56:27.158Z,-146.62
2024-05-09T12:59:29.793Z,-146.62
2024-05-09T13:02:35.161Z,-146.62
2024-05-09T13:05:37.952Z,-146.62
2024-05-09T13:08:43.509Z,-146.62
2024-05-09T13:11:46.055Z,-146.62
2024-05-09T13:14:51.293Z,-146.62
2024-05-09T13:17:59.173Z,-146.62
2024-05-09T13:21:04.238Z,-146.62
2024-05-09T13:24:09.799Z,-146.62
2024-05-09T13:27:12.446Z,-146.62
2024-05-09T13:30:26.092Z,-146.62
2024-05-09T13:33:39.015Z,-146.62
2024-05-09T13:36:44.625Z,-146.62
2024-05-09T13:39:47.220Z,-146.62
2024-05-09T13:42:52.445Z,-146.62
2024-05-09T13:45:56.437Z,-146.62
2024-05-09T13:49:02.119Z,-146.62
2024-05-09T13:52:07.855Z,-146.62
2024-05-09T13:55:12.304Z,-146.62
2024-05-09T13:58:18.107Z,-146.62
2024-05-09T14:01:23.505Z,-146.62
2024-05-09T14:04:26.538Z,-146.62
2024-05-09T14:07:31.832Z,-146.62
2024-05-09T14:10:35.635Z,-146.62
2024-05-09T14:13:40.914Z,-146.62
2024-05-09T14:16:46.266Z,-146.62
2024-05-09T14:19:48.915Z,-146.62
2024-05-09T14:22:54.204Z,-146.62
2024-05-09T14:25:57.127Z,-146.62
2024-05-09T14:29:02.568Z,-146.62
2024-05-09T14:32:05.335Z,-146.62
2024-05-09T14:35:10.909Z,-146.62
2024-05-09T14:38:13.549Z,-146.62
2024-05-09T14:41:18.780Z,-146.62
2024-05-09T14:44:23.936Z,-146.62
2024-05-09T14:47:26.514Z,-146.62
2024-05-09T14:50:36.915Z,-146.62
2024-05-09T14:53:41.623Z,-146.62
2024-05-09T14:56:46.832Z,-146.62
2024-05-09T14:59:49.341Z,-146.62
2024-05-09T15:02:54.648Z,-146.62
2024-05-09T15:05:59.885Z,-146.62
2024-05-09T15:09:03.731Z,-146.62
2024-05-09T15:12:09.508Z,-146.62
2024-05-09T15:15:27.546Z,-146.62
2024-05-09T15:18:33.220Z,-146.62
2024-05-09T15:21:38.684Z,-146.62
2024-05-09T15:24:42.105Z,-146.62
2024-05-09T15:27:47.681Z,-146.62
2024-05-09T15:30:50.302Z,-146.62
2024-05-09T15:33:55.694Z,-146.62
2024-05-09T15:37:01.726Z,-146.62
2024-05-09T15:40:11.968Z,-146.62
2024-05-09T15:43:20.214Z,-146.62
2024-05-09T15:46:25.558Z,-146.62
2024-05-09T15:49:28.337Z,-146.62
2024-05-09T15:52:33.612Z,-146.62
2024-05-09T15:55:36.428Z,-146.62
2024-05-09T15:58:41.719Z,-146.62
2024-05-09T16:01:44.962Z,-146.62
2024-05-09T16:04:50.324Z,-146.62
2024-05-09T16:07:53.027Z,-146.62
2024-05-09T16:10:58.424Z,-146.62
2024-05-09T16:14:01.041Z,-146.62
2024-05-09T16:17:06.801Z,-146.62
2024-05-09T16:20:15.172Z,-146.62
2024-05-09T16:23:23.542Z,-146.62
2024-05-09T16:26:29.199Z,-146.62
2024-05-09T16:29:31.733Z,-146.62
2024-05-09T16:32:37.020Z,-146.62
2024-05-09T16:35:40.025Z,-146.62
2024-05-09T16:38:45.601Z,-146.62
2024-05-09T16:41:48.175Z,-146.62
2024-05-09T16:44:53.344Z,-146.62
2024-05-09T16:47:56.604Z,-146.62
2024-05-09T16:51:01.850Z,-146.62
2024-05-09T16:54:07.275Z,-146.62
2024-05-09T16:57:09.974Z,-146.62
2024-05-09T17:00:22.483Z,-146.62
2024-05-09T17:03:37.022Z,-146.62
2024-05-09T17:06:40.001Z,-146.62
2024-05-09T17:09:45.362Z,-146.62
2024-05-09T17:12:50.861Z,-146.62
2024-05-09T17:15:56.215Z,-146.62
2024-05-09T17:19:01.849Z,-146.62
2024-05-09T17:22:05.625Z,-146.62
2024-05-09T17:25:11.631Z,-146.62
2024-05-09T17:28:14.903Z,-146.62
2024-05-09T17:31:20.274Z,-146.62
2024-05-09T17:34:23.264Z,-146.62
2024-05-09T17:37:30.304Z,-146.62
2024-05-09T17:40:36.122Z,-146.62
2024-05-09T17:43:43.378Z,-146.62
2024-05-09T17:46:46.137Z,-146.62
2024-05-09T17:49:51.475Z,-146.62
2024-05-09T17:52:56.783Z,-146.62
2024-05-09T17:56:02.504Z,-146.62
2024-05-09T17:59:06.496Z,-146.62
2024-05-09T18:02:13.423Z,-146.62
2024-05-09T18:05:16.044Z,-146.62
2024-05-09T18:08:21.531Z,-146.62
2024-05-09T18:11:28.100Z,-146.62
2024-05-09T18:14:30.651Z,-146.62
2024-05-09T18:17:36.004Z,-146.62
2024-05-09T18:20:43.898Z,-146.62
2024-05-09T18:23:52.226Z,-146.62
2024-05-09T18:26:54.966Z,-146.62
2024-05-09T18:30:00.196Z,-146.62
2024-05-09T18:33:07.089Z,-146.62
2024-05-09T18:36:13.624Z,-146.62
2024-05-09T18:39:17.293Z,-146.62
2024-05-09T18:42:22.493Z,-146.62
2024-05-09T18:45:28.095Z,-146.62
2024-05-09T18:48:33.405Z,-146.62
2024-05-09T18:51:36.124Z,-146.62
2024-05-09T18:54:42.050Z,-146.62
2024-05-09T18:57:47.439Z,-146.62
2024-05-09T19:00:52.072Z,-146.62
2024-05-09T19:03:59.309Z,-146.62
2024-05-09T19:07:05.456Z,-146.62
2024-05-09T19:10:21.526Z,-146.62
2024-05-09T19:13:28.427Z,-146.62
2024-05-09T19:16:38.270Z,-146.62
2024-05-09T19:19:43.828Z,-146.62
2024-05-09T19:22:46.401Z,-146.62
2024-05-09T19:25:51.970Z,-146.62
2024-05-09T19:28:54.785Z,-146.62
2024-05-09T19:32:00.093Z,-146.62
2024-05-09T19:35:05.449Z,-146.62
2024-05-09T19:38:10.889Z,-146.62
2024-05-09T19:41:13.409Z,-146.62
2024-05-09T19:44:18.742Z,-146.62
2024-05-09T19:47:21.511Z,-146.62
2024-05-09T19:50:36.142Z,-146.62
2024-05-09T19:53:46.904Z,-146.62
2024-05-09T19:56:52.265Z,-146.62
2024-05-09T19:59:57.555Z,-146.62
2024-05-09T20:03:03.398Z,-146.62
2024-05-09T20:06:06.558Z,-146.62
2024-05-09T20:09:11.956Z,-146.62
2024-05-09T20:12:14.409Z,-146.62
2024-05-09T20:15:19.761Z,-146.62
2024-05-09T20:18:25.164Z,-146.62
2024-05-09T20:21:27.831Z,-146.62
2024-05-09T20:24:33.057Z,-146.62
2024-05-09T20:27:35.572Z,-146.62
2024-05-09T20:30:40.980Z,-146.62
2024-05-09T20:33:43.690Z,-146.62
2024-05-09T20:36:48.861Z,-146.62
2024-05-09T20:39:54.316Z,-146.62
2024-05-09T20:42:59.741Z,-146.62
2024-05-09T20:46:21.629Z,-146.62
2024-05-09T20:49:24.447Z,-146.62
2024-05-09T20:52:29.805Z,-146.62
2024-05-09T20:55:32.333Z,-146.62
2024-05-09T20:58:37.621Z,-146.62
2024-05-09T21:01:40.172Z,-146.62
2024-05-09T21:04:45.718Z,-146.62
2024-05-09T21:07:48.577Z,-146.62
2024-05-09T21:10:54.205Z,-146.62
2024-05-09T21:13:59.547Z,-146.62
2024-05-09T21:17:02.159Z,-146.62
2024-05-09T21:20:14.184Z,-146.62
2024-05-09T21:23:19.728Z,-146.62
2024-05-09T21:26:25.716Z,-146.62
2024-05-09T21:29:28.212Z,-146.62
2024-05-09T21:32:33.582Z,-146.62
2024-05-09T21:35:36.231Z,-146.62
2024-05-09T21:38:46.475Z,-146.62
2024-05-09T21:41:48.988Z,-146.62
2024-05-09T21:44:54.158Z,-146.62
2024-05-09T21:47:59.527Z,-146.62
2024-05-09T21:51:02.119Z,-146.62
2024-05-09T21:54:07.260Z,-146.62
2024-05-09T21:57:10.230Z,-146.62
2024-05-09T22:00:28.525Z,-146.62
2024-05-09T22:03:40.580Z,-146.62
2024-05-09T22:06:45.999Z,-146.62
2024-05-09T22:09:48.595Z,-146.62
2024-05-09T22:12:54.197Z,-146.62
2024-05-09T22:15:59.425Z,-146.62
2024-05-09T22:19:02.079Z,-146.62
2024-05-09T22:22:07.616Z,-146.62
2024-05-09T22:25:10.366Z,-146.62
2024-05-09T22:28:18.066Z,-146.62
2024-05-09T22:31:20.781Z,-146.62
2024-05-09T22:34:26.286Z,-146.62
2024-05-09T22:37:29.479Z,-146.62
2024-05-09T22:40:45.359Z,-146.62
2024-05-09T22:43:53.832Z,-146.62
2024-05-09T22:46:56.425Z,-146.62
2024-05-09T22:50:01.677Z,-146.62
2024-05-09T22:53:04.299Z,-146.62
2024-05-09T22:56:10.079Z,-146.62
2024-05-09T22:59:13.232Z,-146.62
2024-05-09T23:02:18.437Z,-146.62
2024-05-09T23:05:21.112Z,-146.62
2024-05-09T23:08:26.314Z,-146.62
2024-05-09T23:11:28.962Z,-146.62
2024-05-09T23:14:34.839Z,-146.62
2024-05-09T23:17:37.626Z,-146.62
2024-05-09T23:20:42.798Z,-146.62
2024-05-09T23:23:45.359Z,-146.62
2024-05-09T23:26:50.546Z,-146.62
2024-05-09T23:29:53.526Z,-146.62
2024-05-09T23:32:58.756Z,-146.62
2024-05-09T23:36:01.333Z,-146.62
2024-05-09T23:39:06.623Z,-146.62
2024-05-09T23:42:11.833Z,-146.62
2024-05-09T23:45:14.366Z,-146.62
2024-05-09T23:48:19.689Z,-146.62
2024-05-09T23:51:24.863Z,-146.62
2024-05-09T23:54:27.456Z,-146.62
2024-05-09T23:57:32.765Z,-146.62
